Time;durP1;ratioP1;P1;durP2;ratioP2;P2;SDS_P1;SDS_P2;PMS_P1;PMS_P2;Temp;Humidity;BMP_temperature;BMP_pressure;BME280_temperature;BME280_humidity;BME280_pressure;Samples;Min_cycle;Max_cycle;Signal;HPM_P1;HPM_P2
2022/10/15 00:00:46;;;;;;;86.05;53.50;;;13.00;97.40;;;;;;5038361;28;20041;-78
2022/10/15 00:03:12;;;;;;;78.97;51.55;;;13.00;97.50;;;;;;5022053;28;20045;-77
2022/10/15 00:05:39;;;;;;;79.00;48.70;;;13.00;97.40;;;;;;5055011;28;20063;-78
2022/10/15 00:08:06;;;;;;;80.35;50.10;;;13.00;97.40;;;;;;5038447;28;20049;-77
2022/10/15 00:10:32;;;;;;;79.20;49.33;;;13.00;97.40;;;;;;5054740;28;20128;-79
2022/10/15 00:12:58;;;;;;;77.65;51.22;;;13.00;97.50;;;;;;5038520;28;20033;-77
2022/10/15 00:15:24;;;;;;;90.72;55.65;;;13.10;97.40;;;;;;5054891;28;20374;-76
2022/10/15 00:17:49;;;;;;;90.15;54.08;;;13.10;97.60;;;;;;5055043;28;20128;-77
2022/10/15 00:20:15;;;;;;;74.82;48.03;;;13.00;97.70;;;;;;5021666;28;20452;-76
2022/10/15 00:22:41;;;;;;;98.43;56.20;;;13.00;97.70;;;;;;5038074;28;20048;-78
2022/10/15 00:25:08;;;;;;;90.85;53.72;;;13.10;97.70;;;;;;5037305;28;20037;-79
2022/10/15 00:27:37;;;;;;;85.93;52.78;;;13.10;97.90;;;;;;5054626;28;20103;-80
2022/10/15 00:30:05;;;;;;;88.05;53.45;;;13.10;97.90;;;;;;5054650;28;20033;-77
2022/10/15 00:32:31;;;;;;;91.68;54.33;;;13.00;97.90;;;;;;5054421;28;20049;-77
2022/10/15 00:34:57;;;;;;;94.93;53.30;;;13.10;97.60;;;;;;5054794;28;20032;-76
2022/10/15 00:37:23;;;;;;;96.93;55.42;;;13.00;97.70;;;;;;5021682;28;20511;-75
2022/10/15 00:39:49;;;;;;;94.78;55.60;;;13.10;97.80;;;;;;5054465;28;20118;-76
2022/10/15 00:42:15;;;;;;;101.15;54.63;;;13.10;97.60;;;;;;5053961;28;20049;-77
2022/10/15 00:44:55;;;;;;;98.20;53.83;;;13.10;97.90;;;;;;5053837;28;20052;-78
2022/10/15 00:47:40;;;;;;;107.97;57.60;;;13.10;97.70;;;;;;5053770;28;20055;-77
2022/10/15 00:50:11;;;;;;;108.85;57.72;;;13.10;98.00;;;;;;5053820;28;20053;-77
2022/10/15 00:52:46;;;;;;;100.55;56.15;;;13.10;98.10;;;;;;5037445;28;20119;-76
2022/10/15 00:55:32;;;;;;;117.15;58.90;;;13.10;97.90;;;;;;5037448;28;20509;-78
2022/10/15 00:58:27;;;;;;;118.18;62.33;;;13.10;97.90;;;;;;5054098;28;20118;-79
2022/10/15 01:00:54;;;;;;;109.40;58.83;;;13.10;97.90;;;;;;5054348;28;20397;-76
2022/10/15 01:03:20;;;;;;;119.18;59.95;;;13.00;98.00;;;;;;5037184;28;20570;-78
2022/10/15 01:05:48;;;;;;;114.63;59.30;;;13.00;98.00;;;;;;5020731;28;20077;-76
2022/10/15 01:08:14;;;;;;;100.35;56.85;;;13.00;97.90;;;;;;5053828;28;20501;-77
2022/10/15 01:11:12;;;;;;;109.97;57.65;;;13.00;97.90;;;;;;5053621;28;20087;-78
2022/10/15 01:14:18;;;;;;;108.43;56.95;;;13.00;97.90;;;;;;5049720;28;20057;-75
2022/10/15 01:17:06;;;;;;;103.20;54.85;;;13.00;97.90;;;;;;5054145;28;20392;-77
2022/10/15 01:20:09;;;;;;;107.10;55.67;;;13.00;97.90;;;;;;5036936;28;20127;-78
2022/10/15 01:22:47;;;;;;;100.60;56.22;;;13.00;98.00;;;;;;5036931;28;20041;-77
2022/10/15 01:25:22;;;;;;;90.40;53.13;;;13.00;98.10;;;;;;5053587;28;20040;-77
2022/10/15 01:28:05;;;;;;;96.55;52.50;;;13.00;98.20;;;;;;5036899;28;20087;-77
2022/10/15 01:30:45;;;;;;;93.65;53.15;;;13.00;98.20;;;;;;5036851;28;20424;-77
2022/10/15 01:33:30;;;;;;;94.25;52.15;;;12.90;98.10;;;;;;5036754;28;20053;-77
2022/10/15 01:36:06;;;;;;;95.95;51.95;;;13.00;98.10;;;;;;5053342;28;20130;-77
2022/10/15 01:38:42;;;;;;;96.28;51.90;;;13.00;98.00;;;;;;5052442;28;20041;-76
2022/10/15 01:41:25;;;;;;;93.43;51.38;;;13.00;98.20;;;;;;5053361;28;20041;-78
2022/10/15 01:44:09;;;;;;;80.15;46.80;;;12.90;98.20;;;;;;5053006;28;20044;-78
2022/10/15 01:46:54;;;;;;;80.47;44.60;;;12.90;98.10;;;;;;5053229;28;20073;-77
2022/10/15 01:49:21;;;;;;;;;;;12.90;98.00;;;;;;5037133;28;20084;-80
2022/10/15 01:51:49;;;;;;;70.35;41.17;;;12.90;98.20;;;;;;5052970;28;20305;-77
2022/10/15 01:54:18;;;;;;;77.30;40.70;;;12.90;98.20;;;;;;5052705;28;20041;-77
2022/10/15 01:56:48;;;;;;;73.13;39.30;;;12.80;98.20;;;;;;5052894;28;20073;-76
2022/10/15 01:59:19;;;;;;;64.20;37.78;;;12.80;98.20;;;;;;5052815;28;20126;-75
2022/10/15 02:01:46;;;;;;;62.45;37.40;;;12.80;98.10;;;;;;5036294;28;20045;-79
2022/10/15 02:04:26;;;;;;;67.05;37.35;;;12.80;98.20;;;;;;5036457;28;20037;-77
2022/10/15 02:06:57;;;;;;;61.75;34.50;;;12.80;98.20;;;;;;5052730;28;20045;-80
2022/10/15 02:09:53;;;;;;;60.70;35.40;;;12.80;98.10;;;;;;5052580;28;20049;-76
2022/10/15 02:12:42;;;;;;;54.20;30.80;;;12.80;98.10;;;;;;5052632;28;20044;-77
2022/10/15 02:15:23;;;;;;;63.90;32.83;;;12.80;98.10;;;;;;5035810;28;20482;-76
2022/10/15 02:18:04;;;;;;;56.55;31.20;;;12.70;98.00;;;;;;5052563;28;20087;-77
2022/10/15 02:20:40;;;;;;;52.80;32.50;;;12.70;98.00;;;;;;5052759;28;20033;-78
2022/10/15 02:23:16;;;;;;;58.45;32.75;;;12.70;98.10;;;;;;5052705;28;20051;-78
2022/10/15 02:25:43;;;;;;;53.50;33.22;;;12.70;98.10;;;;;;5052561;28;20049;-78
2022/10/15 02:28:11;;;;;;;68.28;39.92;;;12.70;98.10;;;;;;5052259;28;20041;-77
2022/10/15 02:30:40;;;;;;;66.97;39.22;;;12.70;98.00;;;;;;5052130;28;20041;-76
2022/10/15 02:33:07;;;;;;;78.43;42.42;;;12.70;98.10;;;;;;5052359;28;20037;-77
2022/10/15 02:35:34;;;;;;;77.25;43.42;;;12.70;98.10;;;;;;5052441;28;20064;-77
2022/10/15 02:38:04;;;;;;;75.85;44.35;;;12.70;98.10;;;;;;5035565;28;20041;-77
2022/10/15 02:40:33;;;;;;;93.10;47.83;;;12.70;98.10;;;;;;5052266;28;20046;-77
2022/10/15 02:42:59;;;;;;;92.72;46.53;;;12.80;98.00;;;;;;5052227;28;20048;-75
2022/10/15 02:45:25;;;;;;;88.35;47.25;;;12.80;97.90;;;;;;5052139;28;20045;-75
2022/10/15 02:47:50;;;;;;;87.30;47.25;;;12.70;98.00;;;;;;5051893;28;20041;-76
2022/10/15 02:50:16;;;;;;;82.90;45.10;;;12.80;98.00;;;;;;5052186;28;20045;-78
2022/10/15 02:52:42;;;;;;;74.05;42.92;;;12.80;98.00;;;;;;5035356;28;20049;-76
2022/10/15 02:55:08;;;;;;;86.28;46.85;;;12.70;97.90;;;;;;5052335;28;20103;-78
2022/10/15 02:57:34;;;;;;;97.95;50.22;;;12.70;97.90;;;;;;5052025;28;20037;-77
2022/10/15 02:59:59;;;;;;;88.13;48.33;;;12.70;98.00;;;;;;5051628;28;20087;-77
2022/10/15 03:02:25;;;;;;;81.47;46.47;;;12.70;98.00;;;;;;5035382;28;20084;-77
2022/10/15 03:04:51;;;;;;;97.45;52.55;;;12.70;98.00;;;;;;5035232;28;20080;-76
2022/10/15 03:07:16;;;;;;;94.55;52.58;;;12.70;97.90;;;;;;5051685;28;20033;-76
2022/10/15 03:09:42;;;;;;;92.55;51.17;;;12.70;97.90;;;;;;5051565;28;20143;-77
2022/10/15 03:12:08;;;;;;;90.65;50.85;;;12.70;98.00;;;;;;5018559;28;20029;-76
2022/10/15 03:14:33;;;;;;;85.35;49.47;;;12.70;98.00;;;;;;5039010;28;20032;-76
2022/10/15 03:16:59;;;;;;;86.30;48.70;;;12.70;98.00;;;;;;5038562;28;20048;-78
2022/10/15 03:19:25;;;;;;;95.20;50.58;;;12.70;98.10;;;;;;5055287;28;20052;-77
2022/10/15 03:21:50;;;;;;;91.60;48.72;;;12.70;98.00;;;;;;5071683;28;20127;-77
2022/10/15 03:24:16;;;;;;;89.57;49.15;;;12.60;98.00;;;;;;5054936;28;20067;-75
2022/10/15 03:26:42;;;;;;;88.45;49.42;;;12.70;98.00;;;;;;5071939;28;20037;-77
2022/10/15 03:29:07;;;;;;;97.70;51.40;;;12.60;98.00;;;;;;5055033;28;20048;-77
2022/10/15 03:31:33;;;;;;;90.55;50.10;;;12.60;98.00;;;;;;5071751;28;20036;-77
2022/10/15 03:33:59;;;;;;;94.90;50.55;;;12.60;98.00;;;;;;5071646;28;20439;-78
2022/10/15 03:36:25;;;;;;;84.75;45.88;;;12.60;98.00;;;;;;5071684;28;20124;-76
2022/10/15 03:38:50;;;;;;;85.10;46.85;;;12.60;98.00;;;;;;5071925;28;20075;-77
2022/10/15 03:41:16;;;;;;;93.85;48.55;;;12.60;98.00;;;;;;5054544;28;20041;-75
2022/10/15 03:43:42;;;;;;;88.95;49.42;;;12.60;98.10;;;;;;5054498;28;20044;-76
2022/10/15 03:46:07;;;;;;;99.50;51.40;;;12.60;98.00;;;;;;5054726;28;20036;-77
2022/10/15 03:48:33;;;;;;;96.72;49.53;;;12.60;98.00;;;;;;5071250;28;20040;-76
2022/10/15 03:50:59;;;;;;;100.13;53.13;;;12.60;98.10;;;;;;5071856;28;20044;-77
2022/10/15 03:53:25;;;;;;;96.22;49.17;;;12.60;98.00;;;;;;5054621;28;20524;-78
2022/10/15 03:55:50;;;;;;;103.32;53.45;;;12.60;98.00;;;;;;5071550;28;20040;-75
2022/10/15 03:58:16;;;;;;;83.20;44.72;;;12.60;98.00;;;;;;5071494;28;20079;-78
2022/10/15 04:00:43;;;;;;;102.07;51.10;;;12.60;98.00;;;;;;5039396;28;20046;-77
2022/10/15 04:03:09;;;;;;;108.22;52.30;;;12.60;98.10;;;;;;5075155;28;20071;-78
2022/10/15 04:05:35;;;;;;;99.45;52.50;;;12.60;98.10;;;;;;5058387;28;20377;-79
2022/10/15 04:08:02;;;;;;;107.30;54.63;;;12.60;98.00;;;;;;5058401;28;20051;-77
2022/10/15 04:10:28;;;;;;;104.40;51.28;;;12.60;98.00;;;;;;5074842;28;20047;-78
2022/10/15 04:12:54;;;;;;;102.28;51.50;;;12.60;98.00;;;;;;5041900;28;20036;-76
2022/10/15 04:15:20;;;;;;;106.82;52.67;;;12.60;98.00;;;;;;5074728;28;20040;-77
2022/10/15 04:17:46;;;;;;;107.35;53.08;;;12.60;98.00;;;;;;5074758;28;20078;-78
2022/10/15 04:20:12;;;;;;;79.00;44.83;;;12.60;98.10;;;;;;5058215;28;20094;-78
2022/10/15 04:22:37;;;;;;;88.57;49.28;;;12.60;98.10;;;;;;5057951;28;20496;-77
2022/10/15 04:25:04;;;;;;;98.47;52.22;;;12.60;98.00;;;;;;5074446;28;20106;-78
2022/10/15 04:27:30;;;;;;;91.95;49.38;;;12.70;98.10;;;;;;5074621;28;20043;-76
2022/10/15 04:29:55;;;;;;;109.82;54.00;;;12.70;98.10;;;;;;5058241;28;20119;-74
2022/10/15 04:32:21;;;;;;;115.55;56.78;;;12.60;98.10;;;;;;5074526;28;20051;-77
2022/10/15 04:34:47;;;;;;;109.50;55.35;;;12.60;98.10;;;;;;5057837;28;20422;-78
2022/10/15 04:37:13;;;;;;;107.03;56.55;;;12.60;98.20;;;;;;5057688;28;20507;-76
2022/10/15 04:39:39;;;;;;;102.85;53.65;;;12.70;98.30;;;;;;5057634;28;20036;-77
2022/10/15 04:42:04;;;;;;;93.80;50.88;;;12.60;98.10;;;;;;5074383;28;20052;-78
2022/10/15 04:44:30;;;;;;;112.38;56.83;;;12.70;98.10;;;;;;5057543;28;20040;-78
2022/10/15 04:46:56;;;;;;;110.93;56.40;;;12.70;98.10;;;;;;5057485;28;20071;-75
2022/10/15 04:49:22;;;;;;;96.00;51.67;;;12.70;98.10;;;;;;5073780;28;20071;-76
2022/10/15 04:51:47;;;;;;;94.78;51.88;;;12.70;98.10;;;;;;5057335;28;20052;-75
2022/10/15 04:54:13;;;;;;;99.97;51.38;;;12.70;98.10;;;;;;5074027;28;20032;-80
2022/10/15 04:56:39;;;;;;;95.60;52.25;;;12.70;98.10;;;;;;5074043;28;20036;-76
2022/10/15 04:59:08;;;;;;;94.45;51.20;;;12.60;98.00;;;;;;5074185;28;20089;-75
2022/10/15 05:01:34;;;;;;;79.57;46.10;;;12.60;98.10;;;;;;5057494;28;20147;-77
2022/10/15 05:04:00;;;;;;;100.78;52.33;;;12.60;98.00;;;;;;5073796;28;20131;-76
2022/10/15 05:06:25;;;;;;;86.65;48.78;;;12.60;98.00;;;;;;5073947;28;20127;-77
2022/10/15 05:08:51;;;;;;;96.50;50.92;;;12.50;98.00;;;;;;5074040;28;20041;-75
2022/10/15 05:11:23;;;;;;;93.78;51.42;;;12.50;98.00;;;;;;5073432;28;20401;-78
2022/10/15 05:13:50;;;;;;;102.15;56.05;;;12.50;98.00;;;;;;5073839;28;20041;-78
2022/10/15 05:16:21;;;;;;;104.65;54.47;;;12.50;98.00;;;;;;5073625;28;20072;-75
2022/10/15 05:18:50;;;;;;;102.22;54.67;;;12.50;98.00;;;;;;5073553;28;20063;-76
2022/10/15 05:21:16;;;;;;;72.90;44.70;;;12.50;98.10;;;;;;5073744;28;20040;-79
2022/10/15 05:23:43;;;;;;;106.18;54.10;;;12.50;98.00;;;;;;5073392;28;20036;-76
2022/10/15 05:26:13;;;;;;;97.55;53.78;;;12.50;98.10;;;;;;5073551;28;20048;-77
2022/10/15 05:28:39;;;;;;;97.00;52.50;;;12.50;98.00;;;;;;5056848;28;20075;-77
2022/10/15 05:31:10;;;;;;;99.45;55.17;;;12.50;98.10;;;;;;5073351;28;20040;-78
2022/10/15 05:33:36;;;;;;;112.30;55.75;;;12.50;98.10;;;;;;5073329;28;20041;-77
2022/10/15 05:36:21;;;;;;;98.78;53.28;;;12.50;98.10;;;;;;5056795;28;20032;-77
2022/10/15 05:38:50;;;;;;;100.28;52.33;;;12.50;98.10;;;;;;5056486;28;20037;-75
2022/10/15 05:41:16;;;;;;;106.60;57.05;;;12.40;98.10;;;;;;5056543;28;20501;-76
2022/10/15 05:43:44;;;;;;;105.57;56.22;;;12.50;98.10;;;;;;5056511;28;20127;-78
2022/10/15 05:46:10;;;;;;;106.07;55.88;;;12.50;98.10;;;;;;5073450;28;20097;-77
2022/10/15 05:48:36;;;;;;;121.35;61.05;;;12.50;98.20;;;;;;5023123;28;20496;-75
2022/10/15 05:51:04;;;;;;;109.35;57.28;;;12.50;98.20;;;;;;5056170;28;20080;-75
2022/10/15 05:53:30;;;;;;;126.75;62.05;;;12.50;98.20;;;;;;5072595;28;20044;-75
2022/10/15 05:55:57;;;;;;;99.55;54.80;;;12.50;98.20;;;;;;5072632;28;20036;-74
2022/10/15 05:58:24;;;;;;;97.47;53.42;;;12.50;98.20;;;;;;5072727;28;20040;-74
2022/10/15 06:00:55;;;;;;;107.07;55.88;;;12.50;98.10;;;;;;5072248;28;20048;-78
2022/10/15 06:03:20;;;;;;;104.90;56.92;;;12.40;98.10;;;;;;5055848;28;20209;-76
2022/10/15 06:05:46;;;;;;;109.80;58.25;;;12.40;98.10;;;;;;5072347;28;20552;-75
2022/10/15 06:08:12;;;;;;;102.63;54.13;;;12.40;98.00;;;;;;5072579;28;20461;-73
2022/10/15 06:10:38;;;;;;;113.53;57.38;;;12.30;98.00;;;;;;5072447;28;20037;-77
2022/10/15 06:13:04;;;;;;;111.68;58.38;;;12.30;98.00;;;;;;5056330;28;20135;-75
2022/10/15 06:15:31;;;;;;;106.40;58.45;;;12.30;98.00;;;;;;5072116;28;20485;-79
2022/10/15 06:17:56;;;;;;;86.20;52.58;;;12.20;98.00;;;;;;5072709;28;20059;-78
2022/10/15 06:20:22;;;;;;;94.55;53.03;;;12.20;98.00;;;;;;5072431;28;20490;-77
2022/10/15 06:22:48;;;;;;;103.05;56.83;;;12.10;97.90;;;;;;5022176;28;20044;-76
2022/10/15 06:25:14;;;;;;;105.13;55.90;;;12.10;97.90;;;;;;5055843;28;20047;-76
2022/10/15 06:27:39;;;;;;;105.63;56.67;;;12.10;97.90;;;;;;5055883;28;20040;-78
2022/10/15 06:30:06;;;;;;;94.72;52.67;;;12.10;97.90;;;;;;5054180;28;20499;-77
2022/10/15 06:32:32;;;;;;;103.45;57.33;;;12.10;97.90;;;;;;5054054;28;20094;-78
2022/10/15 06:34:58;;;;;;;93.35;54.35;;;12.10;97.90;;;;;;5071827;28;20032;-77
2022/10/15 06:37:23;;;;;;;99.40;55.25;;;12.10;97.90;;;;;;5055007;28;20098;-76
2022/10/15 06:39:49;;;;;;;121.60;61.85;;;12.10;97.90;;;;;;5071567;28;20037;-76
2022/10/15 06:42:15;;;;;;;103.43;59.35;;;12.10;98.00;;;;;;5072033;28;20066;-77
2022/10/15 06:44:41;;;;;;;98.88;55.28;;;12.10;97.90;;;;;;5055104;28;20048;-78
2022/10/15 06:47:07;;;;;;;115.95;60.85;;;12.20;98.00;;;;;;5055288;28;20056;-75
2022/10/15 06:49:32;;;;;;;103.93;58.75;;;12.20;97.90;;;;;;5071318;28;20060;-75
2022/10/15 06:51:58;;;;;;;104.57;56.75;;;12.20;97.90;;;;;;5054954;28;20063;-78
2022/10/15 06:54:24;;;;;;;111.30;60.88;;;12.20;97.90;;;;;;5071806;28;20056;-75
2022/10/15 06:56:50;;;;;;;120.30;63.95;;;12.20;97.90;;;;;;5071855;28;20488;-77
2022/10/15 06:59:16;;;;;;;112.47;60.40;;;12.20;97.90;;;;;;5071837;28;20072;-77
2022/10/15 07:01:42;;;;;;;105.45;57.13;;;12.20;97.90;;;;;;5038360;28;20549;-78
2022/10/15 07:04:08;;;;;;;115.18;63.08;;;12.20;97.90;;;;;;5038306;28;20040;-78
2022/10/15 07:06:36;;;;;;;118.40;62.00;;;12.20;97.90;;;;;;5071466;28;20041;-77
2022/10/15 07:09:04;;;;;;;88.45;50.97;;;12.20;98.10;;;;;;5071643;28;20094;-77
2022/10/15 07:11:30;;;;;;;105.47;60.53;;;12.30;98.00;;;;;;5072036;28;20504;-78
2022/10/15 07:13:56;;;;;;;120.25;63.08;;;12.30;97.90;;;;;;5055027;28;20079;-77
2022/10/15 07:16:22;;;;;;;115.82;61.58;;;12.40;98.10;;;;;;5055306;28;20076;-79
2022/10/15 07:18:48;;;;;;;103.15;59.38;;;12.50;98.10;;;;;;5071956;28;20451;-76
2022/10/15 07:21:17;;;;;;;111.00;58.50;;;12.50;98.10;;;;;;5074921;28;20041;-75
2022/10/15 07:23:43;;;;;;;108.68;60.95;;;12.50;98.00;;;;;;5075976;28;20504;-78
2022/10/15 07:26:08;;;;;;;128.52;65.88;;;12.50;98.10;;;;;;5072826;28;20056;-77
2022/10/15 07:28:34;;;;;;;112.15;59.88;;;12.60;98.10;;;;;;5071964;28;20142;-75
2022/10/15 07:31:06;;;;;;;114.75;64.28;;;12.60;98.00;;;;;;5071534;28;20037;-77
2022/10/15 07:33:35;;;;;;;125.25;64.75;;;12.60;97.90;;;;;;5071783;28;20124;-78
2022/10/15 07:36:10;;;;;;;113.57;61.67;;;12.70;98.00;;;;;;5073294;28;20489;-77
2022/10/15 07:38:35;;;;;;;118.55;63.00;;;12.70;98.00;;;;;;5058384;28;20493;-74
2022/10/15 07:41:02;;;;;;;123.28;61.72;;;12.70;98.10;;;;;;5075071;28;20048;-75
2022/10/15 07:43:28;;;;;;;122.15;61.92;;;12.70;98.30;;;;;;5074965;28;20132;-76
2022/10/15 07:45:54;;;;;;;112.72;59.33;;;12.80;98.20;;;;;;5058276;28;20076;-78
2022/10/15 07:48:20;;;;;;;114.00;58.60;;;12.80;98.10;;;;;;5058335;28;20099;-75
2022/10/15 07:50:45;;;;;;;116.50;56.10;;;12.90;98.20;;;;;;5074490;28;20094;-78
2022/10/15 07:53:11;;;;;;;122.35;61.60;;;12.90;98.20;;;;;;5058222;28;20425;-77
2022/10/15 07:55:37;;;;;;;102.25;50.63;;;12.90;98.20;;;;;;5074737;28;20041;-75
2022/10/15 07:58:04;;;;;;;119.50;60.65;;;13.00;98.10;;;;;;5074624;28;20040;-75
2022/10/15 08:00:32;;;;;;;105.88;53.58;;;12.90;98.20;;;;;;5058447;28;20044;-77
2022/10/15 08:02:57;;;;;;;129.82;63.05;;;12.90;98.20;;;;;;5074894;28;20032;-75
2022/10/15 08:05:23;;;;;;;105.10;55.92;;;13.00;98.30;;;;;;5058066;28;20041;-76
2022/10/15 08:07:49;;;;;;;106.20;52.33;;;12.90;98.30;;;;;;5074459;28;20499;-77
2022/10/15 08:10:14;;;;;;;108.03;49.88;;;13.00;98.30;;;;;;5074339;28;20040;-75
2022/10/15 08:12:40;;;;;;;105.25;51.63;;;13.00;98.30;;;;;;5074362;28;20236;-77
2022/10/15 08:15:06;;;;;;;109.10;53.03;;;13.00;98.20;;;;;;5041169;28;20130;-76
2022/10/15 08:17:32;;;;;;;93.78;47.30;;;13.00;98.30;;;;;;5057620;28;20060;-78
2022/10/15 08:19:58;;;;;;;100.10;50.08;;;13.10;98.10;;;;;;5057766;28;20033;-76
2022/10/15 08:22:23;;;;;;;103.30;50.35;;;13.10;98.20;;;;;;5057851;28;20044;-76
2022/10/15 08:24:49;;;;;;;100.70;47.75;;;13.10;98.10;;;;;;5074167;28;20496;-75
2022/10/15 08:27:15;;;;;;;78.95;40.83;;;13.10;98.10;;;;;;5074405;28;20083;-75
2022/10/15 08:29:40;;;;;;;86.85;44.85;;;13.20;98.10;;;;;;5074009;28;20048;-79
2022/10/15 08:32:06;;;;;;;86.93;46.28;;;13.20;98.10;;;;;;5073987;28;20063;-76
2022/10/15 08:34:32;;;;;;;92.32;47.33;;;13.30;98.00;;;;;;5074242;28;20036;-76
2022/10/15 08:36:57;;;;;;;99.63;50.90;;;13.30;98.00;;;;;;5074283;28;20385;-76
2022/10/15 08:39:23;;;;;;;83.63;46.55;;;13.30;98.00;;;;;;5057243;28;20473;-75
2022/10/15 08:42:00;;;;;;;78.50;42.13;;;13.30;97.90;;;;;;5073842;28;20044;-76
2022/10/15 08:44:40;;;;;;;80.88;43.90;;;13.30;97.70;;;;;;5074482;28;20396;-78
2022/10/15 08:47:27;;;;;;;76.68;44.22;;;13.30;97.60;;;;;;5073523;28;20395;-76
2022/10/15 08:49:58;;;;;;;74.13;41.03;;;13.20;97.30;;;;;;5073417;28;20048;-76
2022/10/15 08:52:28;;;;;;;73.90;42.63;;;13.20;97.40;;;;;;5056962;28;20075;-75
2022/10/15 08:54:55;;;;;;;68.07;40.60;;;13.20;97.20;;;;;;5073609;28;20068;-76
2022/10/15 08:57:54;;;;;;;80.43;45.47;;;13.20;97.30;;;;;;5073866;28;20380;-76
2022/10/15 09:00:36;;;;;;;86.95;46.92;;;13.20;97.30;;;;;;5068491;28;20037;-74
2022/10/15 09:03:21;;;;;;;77.43;44.53;;;13.20;97.30;;;;;;5059539;28;20036;-76
2022/10/15 09:06:15;;;;;;;79.40;46.45;;;13.30;97.20;;;;;;5047840;28;20130;-76
2022/10/15 09:09:06;;;;;;;75.03;45.45;;;13.30;97.10;;;;;;5064947;28;20044;-75
2022/10/15 09:11:57;;;;;;;69.80;41.67;;;13.30;97.00;;;;;;5050349;28;20089;-75
2022/10/15 09:14:32;;;;;;;67.72;42.92;;;13.30;97.10;;;;;;5037143;28;20048;-77
2022/10/15 09:17:04;;;;;;;69.80;43.00;;;13.40;96.90;;;;;;5051667;28;20545;-75
2022/10/15 09:19:33;;;;;;;68.65;43.13;;;13.50;96.90;;;;;;5060281;28;20834;-76
2022/10/15 09:22:01;;;;;;;68.60;42.38;;;13.50;96.90;;;;;;5054484;28;20067;-74
2022/10/15 09:24:28;;;;;;;66.80;42.17;;;13.50;96.90;;;;;;5053831;28;20139;-74
2022/10/15 09:27:20;;;;;;;68.18;42.42;;;13.40;96.50;;;;;;5040305;28;20539;-75
2022/10/15 09:30:02;;;;;;;59.13;37.97;;;13.40;96.60;;;;;;5055277;28;20051;-75
2022/10/15 09:32:46;;;;;;;56.63;36.28;;;13.40;96.60;;;;;;5058320;28;20145;-78
2022/10/15 09:35:11;;;;;;;73.22;41.20;;;13.40;96.70;;;;;;5056751;28;20487;-75
2022/10/15 09:37:54;;;;;;;60.15;36.17;;;13.40;96.50;;;;;;5034748;28;20036;-75
2022/10/15 09:40:35;;;;;;;48.22;30.13;;;13.40;96.40;;;;;;5054737;28;20413;-76
2022/10/15 09:43:04;;;;;;;49.33;30.75;;;13.30;96.20;;;;;;5057184;28;20439;-76
2022/10/15 09:45:31;;;;;;;47.97;29.27;;;13.30;96.20;;;;;;5040482;28;20048;-76
2022/10/15 09:47:59;;;;;;;52.83;32.30;;;13.30;96.30;;;;;;5042117;28;20049;-77
2022/10/15 09:50:38;;;;;;;53.80;32.53;;;13.30;96.10;;;;;;5053167;28;20057;-76
2022/10/15 09:53:22;;;;;;;60.22;35.58;;;13.30;96.20;;;;;;5052249;28;20041;-76
2022/10/15 09:56:18;;;;;;;51.20;30.35;;;13.20;96.10;;;;;;5025357;28;20053;-77
2022/10/15 09:58:55;;;;;;;51.55;29.20;;;13.30;96.20;;;;;;5036658;28;20068;-76
2022/10/15 10:01:23;;;;;;;47.08;26.05;;;13.30;96.20;;;;;;5052356;28;20076;-76
2022/10/15 10:04:13;;;;;;;46.47;26.90;;;13.30;96.20;;;;;;5040459;28;20063;-75
2022/10/15 10:06:49;;;;;;;43.47;25.67;;;13.40;96.20;;;;;;5055407;28;20058;-76
2022/10/15 10:09:39;;;;;;;45.00;25.05;;;13.40;95.90;;;;;;5034151;28;20045;-75
2022/10/15 10:12:19;;;;;;;43.55;25.08;;;13.50;96.10;;;;;;5051186;28;20448;-75
2022/10/15 10:14:56;;;;;;;38.85;22.08;;;13.40;96.00;;;;;;5057750;28;20040;-75
2022/10/15 10:17:25;;;;;;;38.97;23.00;;;13.50;95.70;;;;;;5053301;28;20132;-76
2022/10/15 10:20:09;;;;;;;49.10;27.67;;;13.50;95.70;;;;;;5042684;28;20663;-78
2022/10/15 10:22:41;;;;;;;40.55;23.40;;;13.50;95.90;;;;;;5057617;28;20055;-76
2022/10/15 10:25:26;;;;;;;44.28;25.40;;;13.50;95.90;;;;;;5052773;28;20051;-77
2022/10/15 10:27:55;;;;;;;48.67;28.67;;;13.60;95.90;;;;;;5055855;28;20858;-77
2022/10/15 10:30:22;;;;;;;43.67;25.23;;;13.60;95.70;;;;;;5056140;28;20393;-76
2022/10/15 10:32:53;;;;;;;43.38;25.30;;;13.60;95.60;;;;;;5056643;28;20053;-77
2022/10/15 10:35:22;;;;;;;42.55;25.58;;;13.70;95.80;;;;;;5060677;28;20903;-76
2022/10/15 10:37:49;;;;;;;42.03;24.02;;;13.70;95.50;;;;;;5053722;28;20045;-76
2022/10/15 10:40:32;;;;;;;41.35;24.48;;;13.70;95.70;;;;;;5055640;28;20052;-76
2022/10/15 10:43:22;;;;;;;36.50;22.02;;;13.80;95.80;;;;;;5059578;28;20055;-79
2022/10/15 10:45:58;;;;;;;34.30;20.48;;;13.80;95.10;;;;;;5057004;28;20033;-79
2022/10/15 10:48:41;;;;;;;32.63;20.08;;;13.90;95.30;;;;;;5055700;28;20057;-76
2022/10/15 10:51:25;;;;;;;31.87;20.90;;;13.90;95.20;;;;;;5050677;28;20425;-77
2022/10/15 10:54:07;;;;;;;31.42;22.45;;;14.00;95.20;;;;;;5056864;28;20456;-75
2022/10/15 10:56:41;;;;;;;33.60;21.92;;;14.00;95.30;;;;;;5039711;28;20055;-76
2022/10/15 10:59:19;;;;;;;31.02;19.65;;;14.00;95.10;;;;;;5051903;28;20367;-78
2022/10/15 11:01:46;;;;;;;32.10;21.35;;;14.10;95.20;;;;;;5046016;28;20049;-80
2022/10/15 11:04:27;;;;;;;26.00;18.75;;;14.20;94.90;;;;;;5054502;28;20048;-76
2022/10/15 11:07:00;;;;;;;28.90;19.23;;;14.20;94.90;;;;;;5055043;28;20040;-77
2022/10/15 11:09:53;;;;;;;26.25;18.08;;;14.40;94.80;;;;;;5055444;28;20617;-76
2022/10/15 11:12:43;;;;;;;25.75;18.70;;;14.40;94.60;;;;;;5055472;28;20053;-77
2022/10/15 11:15:46;;;;;;;29.85;19.65;;;14.50;94.40;;;;;;5056982;28;20098;-76
2022/10/15 11:18:30;;;;;;;23.77;17.02;;;14.60;94.20;;;;;;5057209;28;20056;-76
2022/10/15 11:21:21;;;;;;;23.45;15.82;;;14.80;93.90;;;;;;5058055;28;20041;-76
2022/10/15 11:23:46;;;;;;;21.55;14.18;;;15.00;93.60;;;;;;5041780;28;20045;-76
2022/10/15 11:26:21;;;;;;;22.25;16.80;;;15.30;93.20;;;;;;5042280;28;20075;-75
2022/10/15 11:29:00;;;;;;;19.67;14.55;;;15.50;92.70;;;;;;5062346;28;20066;-76
2022/10/15 11:32:16;;;;;;;20.05;15.30;;;15.50;91.60;;;;;;5036622;28;20076;-78
2022/10/15 11:35:08;;;;;;;22.65;15.73;;;15.50;90.90;;;;;;5027648;28;20063;-75
2022/10/15 11:37:43;;;;;;;18.63;13.93;;;15.40;90.80;;;;;;5038211;28;20036;-74
2022/10/15 11:40:31;;;;;;;20.08;15.02;;;15.40;91.00;;;;;;5036902;28;20041;-75
2022/10/15 11:43:48;;;;;;;20.60;15.45;;;15.40;91.70;;;;;;5055043;28;20382;-76
2022/10/15 11:46:32;;;;;;;22.88;16.40;;;15.30;91.50;;;;;;5046732;28;20056;-75
2022/10/15 11:49:20;;;;;;;27.08;14.32;;;15.30;91.90;;;;;;5054704;28;20061;-76
2022/10/15 11:52:21;;;;;;;20.08;14.02;;;15.30;91.40;;;;;;5054333;28;20057;-75
2022/10/15 11:54:53;;;;;;;19.15;14.93;;;15.30;91.60;;;;;;5054782;28;20120;-75
2022/10/15 11:57:22;;;;;;;18.75;14.27;;;15.40;91.70;;;;;;5054701;28;20063;-78
2022/10/15 12:00:13;;;;;;;19.00;14.27;;;15.40;91.10;;;;;;5038280;28;20033;-77
2022/10/15 12:02:39;;;;;;;17.17;14.02;;;15.50;91.10;;;;;;5054919;28;20037;-76
2022/10/15 12:05:14;;;;;;;15.77;13.48;;;15.40;90.70;;;;;;5054563;28;20512;-77
2022/10/15 12:07:46;;;;;;;17.30;13.45;;;15.50;90.90;;;;;;5054596;28;20041;-75
2022/10/15 12:10:12;;;;;;;17.25;13.82;;;15.50;90.50;;;;;;5054448;28;20041;-77
2022/10/15 12:12:48;;;;;;;16.67;13.30;;;15.50;91.10;;;;;;5054413;28;20045;-78
2022/10/15 12:15:39;;;;;;;16.17;13.20;;;15.50;90.90;;;;;;5054431;28;20489;-75
2022/10/15 12:18:24;;;;;;;17.70;14.48;;;15.60;91.10;;;;;;5054311;28;20120;-75
2022/10/15 12:20:49;;;;;;;;;;;15.60;91.10;;;;;;5054103;28;20132;-76
2022/10/15 12:23:37;;;;;;;17.38;13.52;;;15.60;91.20;;;;;;5054276;28;20432;-78
2022/10/15 12:26:22;;;;;;;18.13;14.70;;;15.50;91.00;;;;;;5054148;28;20489;-77
2022/10/15 12:28:51;;;;;;;21.23;14.85;;;15.50;91.20;;;;;;5054420;28;20067;-75
2022/10/15 12:31:20;;;;;;;17.77;13.65;;;15.50;91.30;;;;;;5054310;28;20135;-74
2022/10/15 12:33:48;;;;;;;16.30;13.68;;;15.40;91.40;;;;;;5054345;28;20045;-75
2022/10/15 12:36:29;;;;;;;18.83;14.40;;;15.40;91.60;;;;;;5054258;28;20511;-73
2022/10/15 12:39:20;;;;;;;18.23;14.00;;;15.30;91.90;;;;;;5053959;28;20056;-73
2022/10/15 12:41:48;;;;;;;16.85;14.40;;;15.20;92.10;;;;;;5054030;28;20090;-75
2022/10/15 12:44:31;;;;;;;20.08;15.07;;;15.20;92.50;;;;;;5054149;28;20503;-76
2022/10/15 12:47:01;;;;;;;19.80;16.52;;;15.10;92.70;;;;;;5037167;28;20133;-74
2022/10/15 12:49:30;;;;;;;22.58;15.90;;;15.00;93.20;;;;;;5036862;28;20057;-75